Hawk Run, Pennsylvania
Current Conditions -  °F | °C
As of 12:54 PM on Tuesday 21 Oct 2014 (Local Time) from KFIG Reporting Station
Light Rain Light Rain  
Wind Chill: 51°   Ceiling: 4700
Heat Index: 51°   Visibility: 10mi
Dew Point: 49°   Wind: 6mph
Humidity: 92%   Direction: 240°WSW
Pressure: 29.86"   Gusts: NA
Location:  40.94°N, 78.22°W
Report Text: KFIG 211654Z AUTO 24005KT 10SM -RA FEW006 BKN047 OVC055 11/09 A2986 RMK AO2 RAB26 SLP117 P0001 T01060094
Loading
Personal Weather Stations






























Interactive Weather Map
Tropical Storm Tracking
New forecast layout! Learn more

10-Day Weather Forecast

Advertisements
Track Severe Weather on mobile